Nearby METAR Reports

 

KIAG - Niagara Falls, New York, USA
Distance from station: W 13mi, 20km
Updated: Wed, 22-Sep-2021 4:53pm EDT
Light rain, Overcast
Light rain, Overcast
 Wind from ESE
Wind: ESE 7 mph , 11 km/h
Temperature: 73°F , 23°C
Dew Point: 70°F , 21°C
Humidity: 89%
Barometer: 29.73 inHg , 1006.8 hPa
Summary: Light rain
Clouds: Overcast
Visibility: 10 miles , 16 km
Cloud details: Overcast 3700 ft
2021/09/22 20:53 KIAG 222053Z 11006KT 10SM -RA OVC037 23/21 A2973 RMK AO2 RAB35 SLP061 P0000 60001 T02330206 56027
KBUF - Buffalo/Cheektow, New York, USA
Distance from station: S 15mi, 24km
Updated: Wed, 22-Sep-2021 4:54pm EDT
Mostly cloudy
Mostly cloudy
 Wind from SSE
Wind: SSE 10 mph , 17 km/h
Temperature: 77°F , 25°C
Dew Point: 66°F , 19°C
Humidity: 69%
Barometer: 29.74 inHg , 1007.1 hPa
Clouds: Mostly cloudy
Visibility: 10 miles , 16 km
Cloud details: Mostly cloudy 3500 ft
Mostly cloudy 4500 ft
Mostly cloudy 6000 ft
2021/09/22 20:54 KBUF 222054Z 16009KT 10SM BKN035 BKN045 BKN060 25/19 A2974 RMK AO2 PK WND 14026/2012 SLP067 SHRA DSNT NW-N 60000 T02500189 56024
 
CYSN - St. Catharines A, Ontario, Canada
Distance from station: W 24mi, 39km
Updated: Wed, 22-Sep-2021 5:07pm EDT
Light rain, Mist, Overcast
Light rain, Mist, Overcast
 Wind from NNW
Wind: NNW 10 mph , 17 km/h
Temperature: 68°F , 20°C
Dew Point: 68°F , 20°C
Humidity: 100%
Barometer: 29.72 inHg , 1006.4 hPa
Summary: Light rain, Mist
Clouds: Overcast
Visibility: 1 mile , 2 km
Cloud details: Overcast 200 ft
2021/09/22 21:07 CYSN 222107Z 33009KT 1SM -RA BR OVC002 20/20 A2972 RMK SF8 SLP063 DENSITY ALT 1200FT
CWWZ - Port Weller (mar, Ontario, Canada
Distance from station: WNW 28mi, 44km
Updated: Wed, 22-Sep-2021 5:00pm EDT

 Wind from NNW
Wind: NNW 18 mph , 30 km/h
Temperature: 66°F , 19°C
Dew Point: 64°F , 18°C
Humidity: 94%
2021/09/22 21:00 CWWZ 222100Z AUTO 34016KT 19/18 RMK AO1 6022 PK WND 34019/2059 SLP073 T01910184 50007
 
CWPC - Port Colborne(Au, Ontario, Canada
Distance from station: SW 35mi, 56km
Updated: Wed, 22-Sep-2021 5:00pm EDT

 Wind from SSE
Wind: SSE 12 mph , 19 km/h
Temperature: 75°F , 24°C
Dew Point: 66°F , 19°C
Humidity: 74%
2021/09/22 21:00 CWPC 222100Z AUTO 16010KT 24/19 RMK AO1 SLP072 T02360189 56020
CXVN - Vineland (au8), Ontario, Canada
Distance from station: W 36mi, 58km
Updated: Wed, 22-Sep-2021 5:00pm EDT

 Wind from N
Wind: N 14 mph , 22 km/h, Gust: 23 mph , 37 km/h
Temperature: 63°F , 17°C
Dew Point: 61°F , 16°C
Humidity: 94%
2021/09/22 21:00 CXVN 222100Z AUTO 36012G20KT 17/16 RMK AO1 4PAST HR 6020 PK WND 02020/2059 SLP065 P0002 T01700162 50032
 
CYTZ - Toronto Il Vor, Ontario, Canada
Distance from station: NW 49mi, 79km
Updated: Wed, 22-Sep-2021 5:27pm EDT
Overcast
Overcast
 Wind from N
Wind: N 16 mph , 26 km/h, Gust: 25 mph , 41 km/h
Temperature: 61°F , 16°C
Dew Point: 59°F , 15°C
Humidity: 94%
Barometer: 29.74 inHg , 1007.1 hPa
Clouds: Overcast
Visibility: 9 miles , 14 km
Cloud details: Overcast 1800 ft
2021/09/22 21:27 CYTZ 222127Z AUTO 35014G22KT 9SM OVC018 16/15 A2974 RMK SLP072 DENSITY ALT 700FT
KROC - Rochester, New York, USA
Distance from station: E 51mi, 81km
Updated: Wed, 22-Sep-2021 4:54pm EDT
Mostly cloudy
Mostly cloudy
 Wind from SSE
Wind: SSE 12 mph , 19 km/h
Temperature: 73°F , 23°C
Dew Point: 70°F , 21°C
Humidity: 89%
Barometer: 29.78 inHg , 1008.5 hPa
Clouds: Mostly cloudy
Visibility: 10 miles , 16 km
Cloud details: Few Clouds 900 ft
Mostly cloudy 7000 ft
Mostly cloudy 11000 ft
2021/09/22 20:54 KROC 222054Z 15010KT 10SM FEW009 BKN070 BKN110 23/21 A2978 RMK AO2 RAE09 SLP085 P0000 60004 T02280206 58027
 
CXTO - Toronto City, Ontario, Canada
Distance from station: NW 51mi, 82km
Updated: Wed, 22-Sep-2021 5:00pm EDT

 
Temperature: 61°F , 16°C
Dew Point: 59°F , 15°C
Humidity: 94%
2021/09/22 21:00 CXTO 222100Z AUTO 16/15 RMK AO1 8PAST HR 6020 SLP082 P0003 T01560146 50046
CYOO - Oshawa, Ontario, Canada
Distance from station: NNW 54mi, 87km
Updated: Wed, 22-Sep-2021 5:23pm EDT
Light rain, Mist, Overcast
Light rain, Mist, Overcast
 Wind from NNW
Wind: NNW 12 mph , 19 km/h, Gust: 17 mph , 28 km/h
Temperature: 63°F , 17°C
Dew Point: 63°F , 17°C
Humidity: 100%
Barometer: 29.76 inHg , 1007.8 hPa
Summary: Light rain, Mist
Clouds: Overcast
Visibility: 6 miles , 10 km
Cloud details: Overcast 500 ft
2021/09/22 21:23 CYOO 222123Z AUTO 34010G15KT 6SM -RA BR OVC005 17/17 A2976 RMK SLP080 DENSITY ALT 1000FT
 
KDKK - Dunkirk, New York, USA
Distance from station: SW 54mi, 87km
Updated: Wed, 22-Sep-2021 4:53pm EDT
Few Clouds
Few Clouds
 Wind from SSE
Wind: SSE 14 mph , 22 km/h, Gust: 28 mph , 44 km/h
Temperature: 77°F , 25°C
Dew Point: 66°F , 19°C
Humidity: 69%
Barometer: 29.70 inHg , 1005.8 hPa
Clouds: Few Clouds
Visibility: 10 miles , 16 km
Cloud details: Few Clouds 11000 ft
2021/09/22 20:53 KDKK 222053Z AUTO 15012G24KT 10SM FEW110 25/19 A2970 RMK AO2 PK WND 15029/2018 RAE1956 SLP053 P0000 60000 T02500189 55021
CWWB - Burlington Piers, Ontario, Canada
Distance from station: W 56mi, 91km
Updated: Wed, 22-Sep-2021 5:00pm EDT

 Wind from N
Wind: N 22 mph , 35 km/h, Gust: 28 mph , 44 km/h
Temperature: 59°F , 15°C
Dew Point: 55°F , 13°C
Humidity: 88%
2021/09/22 21:00 CWWB 222100Z AUTO 35019G24KT 15/13 RMK AO1 PK WND 34029/2006 SLP074 T01450130 56020
 
CYYZ - Toronto/Pearson, Ontario, Canada
Distance from station: NW 59mi, 95km
Updated: Wed, 22-Sep-2021 5:00pm EDT
Light rain, Mist, Overcast
Light rain, Mist, Overcast
 Wind from N
Wind: N 18 mph , 30 km/h, Gust: 24 mph , 39 km/h
Temperature: 57°F , 14°C
Dew Point: 57°F , 14°C
Humidity: 100%
Barometer: 29.78 inHg , 1008.5 hPa
Summary: Light rain, Mist
Clouds: Overcast
Visibility: 2 1/2 miles , 4 km
Cloud details: Few Clouds 800 ft
Overcast 2100 ft
2021/09/22 21:00 CYYZ 222100Z 36016G21KT 2 1/2SM -RA BR FEW008 OVC021 14/14 A2978 RMK SF2SC6 SLP085 DENSITY ALT 800FT
CWNC - Cobourg (mars), Ontario, Canada
Distance from station: NNE 61mi, 98km
Updated: Wed, 22-Sep-2021 5:00pm EDT

 Wind from ESE
Wind: ESE 8 mph , 13 km/h
Temperature: 70°F , 21°C
Dew Point: 68°F , 20°C
Humidity: 94%
2021/09/22 21:00 CWNC 222100Z AUTO 12007KT 21/20 RMK AO1 4PAST HR 6024 SLP086 P0002 T02080203 50017
 
CXHM - Hamilton Rbg Cs, Ontario, Canada
Distance from station: W 62mi, 100km
Updated: Wed, 22-Sep-2021 5:00pm EDT

 Wind from NE
Wind: NE 3 mph , 6 km/h
Temperature: 57°F , 14°C
Dew Point: 55°F , 13°C
Humidity: 94%
2021/09/22 21:00 CXHM 222100Z AUTO 05003KT 14/13 RMK AO1 2PAST HR 6019 SLP079 P0001 T01430128 50027
CYHM - Hamilton Airport, Ontario, Canada
Distance from station: W 63mi, 101km
Updated: Wed, 22-Sep-2021 5:00pm EDT
Light drizzle, Mist, Mostly cloudy
Light drizzle, Mist, Mostly cloudy
 Wind from NNE
Wind: NNE 17 mph , 28 km/h, Gust: 26 mph , 43 km/h
Temperature: 57°F , 14°C
Dew Point: 55°F , 13°C
Humidity: 94%
Barometer: 29.75 inHg , 1007.5 hPa
Summary: Light drizzle, Mist
Clouds: Mostly cloudy
Visibility: 3/8 mile , 0.6 km
Cloud details: Mostly cloudy 500 ft
Mostly cloudy 1800 ft
Mostly cloudy 2500 ft
2021/09/22 21:00 CYHM 222100Z 02015G23KT 3/8SM R12/P6000FT/U -DZ BR BKN005 BKN018 BKN025 14/13 A2975 RMK SF6SC1SC1 SLP075 DENSITY ALT 1100FT
 
KDSV - Dansville, New York, USA
Distance from station: SE 63mi, 102km
Updated: Wed, 22-Sep-2021 4:54pm EDT
Partly cloudy
Partly cloudy
 Wind from S
Wind: S 12 mph , 19 km/h, Gust: 24 mph , 39 km/h
Temperature: 77°F , 25°C
Dew Point: 66°F , 19°C
Humidity: 69%
Barometer: 29.78 inHg , 1008.5 hPa
Clouds: Partly cloudy
Visibility: 10 miles , 16 km
Cloud details: Partly cloudy 8500 ft
2021/09/22 20:54 KDSV 222054Z AUTO 17010G21KT 10SM SCT085 25/19 A2978 RMK AO2 SLP090 60005 T02500194 58014
KOLE - Olean, New York, USA
Distance from station: SSE 65mi, 105km
Updated: Wed, 22-Sep-2021 5:15pm EDT
Overcast
Overcast
 Wind from SSE
Wind: SSE 10 mph , 17 km/h, Gust: 20 mph , 31 km/h
Temperature: 66°F , 19°C
Dew Point: 66°F , 19°C
Humidity: 100%
Barometer: 29.82 inHg , 1009.8 hPa
Clouds: Overcast
Visibility: 10 miles , 16 km
Cloud details: Overcast 1600 ft
2021/09/22 21:15 KOLE 222115Z AUTO 15009G17KT 10SM OVC016 19/19 A2982 RMK AO2 LTG DSNT SW